Kelly, NC (28448)

10:54 PM EST on January 24, 2015 (GMT -0500)
Elizabethtown | Change Station
CLOSE
Current Station
Airport
Location: Elizabethtown,
Elevation: 131 ft
Nearby Weather Stations

Elev 131 ft 34.60 °N, 78.58 °W | Updated 19 minutes ago

Clear
Clear
38 °F
Feels Like 36 °F
N
4
Wind Variable Wind from SW

Today
High -- | Low -- °F
--% Chance of Precip.
Yesterday
High -- | Low -- °F
Precip. -- in
7:16 AM 5:34 PM
Waxing Crescent, 28% visible
Pressure 29.82 in
Visibility 10.0 miles
Clouds Clear
Windchill 36 °F
Dew Point 37 °F
Humidity 96%
Rainfall 0.31 in
Snow Depth Not available.
UV 0 out of 12
Pollen .40 out of 12
Air Quality Not available.
Flu Activity Not available.
METAR KEYF 250335Z AUTO 22003KT 10SM CLR 03/03 A2982 RMK AO2 T00330027

More Conditions Fewer Conditions

Pressure 29.82 in
Visibility 10.0 miles
Clouds Clear
Windchill 36 °F
Dew Point 37 °F
Humidity 96%
Rainfall 0.31 in
Snow Depth Not available.
UV 0 out of 12
Pollen .40 out of 12
Air Quality Not available.
Flu Activity Not available.
METAR KEYF 250335Z AUTO 22003KT 10SM CLR 03/03 A2982 RMK AO2 T00330027

More Conditions Fewer Conditions

10-Day Weather Forecast

Almanac

Astronomy

Jan. 24, 2015 Rise Set
Actual Time
Civil Twilight
Nautical Twilight
Astronomical Twilight
Moon
Length of Visible Light
Length of Day
Tomorrow will be .
, % of the Moon is Illuminated

Today's Extremes

State Highs State Lows

Community

WunderPhotos

Upload Photos

1,789,825 photos uploaded!

WunderBlogs® & News

Nearby

Air Quality

  Air Quality AQ Index Pollutant
Not available.

Snow Depth

Station Depth Elevation

Earthquake Activity

City Distance Mag. Time & Date
Minimum magnitude displayed is 2.5.

Coastal Water Temperatures

Place Temperature

Nearby Weather Stations